sensor_id;sensor_type;location;lat;lon;timestamp;temperature;humidity
17154;DHT22;8692;52.164;7.558;2023-05-01T00:01:56;9.60;99.90
17154;DHT22;8692;52.164;7.558;2023-05-01T00:04:26;9.50;99.90
17154;DHT22;8692;52.164;7.558;2023-05-01T00:06:55;9.50;99.90
17154;DHT22;8692;52.164;7.558;2023-05-01T00:09:26;9.50;99.90
17154;DHT22;8692;52.164;7.558;2023-05-01T00:11:54;9.40;99.90
17154;DHT22;8692;52.164;7.558;2023-05-01T00:14:23;9.40;99.90
17154;DHT22;8692;52.164;7.558;2023-05-01T00:16:51;9.30;99.90
17154;DHT22;8692;52.164;7.558;2023-05-01T00:19:19;9.30;99.90
17154;DHT22;8692;52.164;7.558;2023-05-01T00:21:49;9.30;99.90
17154;DHT22;8692;52.164;7.558;2023-05-01T00:24:18;9.30;99.90
17154;DHT22;8692;52.164;7.558;2023-05-01T00:26:48;9.20;99.90
17154;DHT22;8692;52.164;7.558;2023-05-01T00:29:19;9.20;99.90
17154;DHT22;8692;52.164;7.558;2023-05-01T00:31:47;9.20;99.90
17154;DHT22;8692;52.164;7.558;2023-05-01T00:34:15;9.10;99.90
17154;DHT22;8692;52.164;7.558;2023-05-01T00:36:46;9.10;99.90
17154;DHT22;8692;52.164;7.558;2023-05-01T00:39:15;9.10;99.90
17154;DHT22;8692;52.164;7.558;2023-05-01T00:41:44;9.10;99.90
17154;DHT22;8692;52.164;7.558;2023-05-01T00:44:13;9.10;99.90
17154;DHT22;8692;52.164;7.558;2023-05-01T00:46:42;9.00;99.90
17154;DHT22;8692;52.164;7.558;2023-05-01T00:49:10;9.00;99.90
17154;DHT22;8692;52.164;7.558;2023-05-01T00:51:39;9.00;99.90
17154;DHT22;8692;52.164;7.558;2023-05-01T00:54:08;9.00;99.90
17154;DHT22;8692;52.164;7.558;2023-05-01T00:56:36;9.00;99.90
17154;DHT22;8692;52.164;7.558;2023-05-01T00:59:07;8.90;99.90
17154;DHT22;8692;52.164;7.558;2023-05-01T01:01:40;8.90;99.90
17154;DHT22;8692;52.164;7.558;2023-05-01T01:04:11;8.90;99.90
17154;DHT22;8692;52.164;7.558;2023-05-01T01:06:46;8.80;99.90
17154;DHT22;8692;52.164;7.558;2023-05-01T01:09:22;8.80;99.90
17154;DHT22;8692;52.164;7.558;2023-05-01T01:11:59;8.80;99.90
17154;DHT22;8692;52.164;7.558;2023-05-01T01:14:33;8.80;99.90
17154;DHT22;8692;52.164;7.558;2023-05-01T01:17:10;8.80;99.90
17154;DHT22;8692;52.164;7.558;2023-05-01T01:20:13;8.70;99.90
17154;DHT22;8692;52.164;7.558;2023-05-01T01:22:52;8.70;99.90
17154;DHT22;8692;52.164;7.558;2023-05-01T01:25:45;8.70;99.90
17154;DHT22;8692;52.164;7.558;2023-05-01T01:28:39;8.70;99.90
17154;DHT22;8692;52.164;7.558;2023-05-01T01:31:13;8.60;99.90
17154;DHT22;8692;52.164;7.558;2023-05-01T01:33:53;8.60;99.90
17154;DHT22;8692;52.164;7.558;2023-05-01T01:36:31;8.60;99.90
17154;DHT22;8692;52.164;7.558;2023-05-01T01:39:12;8.70;99.90
17154;DHT22;8692;52.164;7.558;2023-05-01T01:41:48;8.60;99.90
17154;DHT22;8692;52.164;7.558;2023-05-01T01:44:21;8.60;99.90
17154;DHT22;8692;52.164;7.558;2023-05-01T01:46:53;8.60;99.90
17154;DHT22;8692;52.164;7.558;2023-05-01T01:49:25;8.60;99.90
17154;DHT22;8692;52.164;7.558;2023-05-01T01:51:58;8.60;99.90
17154;DHT22;8692;52.164;7.558;2023-05-01T01:54:42;8.50;99.90
17154;DHT22;8692;52.164;7.558;2023-05-01T01:57:13;8.50;99.90
17154;DHT22;8692;52.164;7.558;2023-05-01T01:59:46;8.50;99.90
17154;DHT22;8692;52.164;7.558;2023-05-01T02:02:17;8.50;99.90
17154;DHT22;8692;52.164;7.558;2023-05-01T02:04:51;8.50;99.90
17154;DHT22;8692;52.164;7.558;2023-05-01T02:07:21;8.40;99.90
17154;DHT22;8692;52.164;7.558;2023-05-01T02:09:50;8.50;99.90
17154;DHT22;8692;52.164;7.558;2023-05-01T02:12:20;8.40;99.90
17154;DHT22;8692;52.164;7.558;2023-05-01T02:14:53;8.40;99.90
17154;DHT22;8692;52.164;7.558;2023-05-01T02:17:24;8.40;99.90
17154;DHT22;8692;52.164;7.558;2023-05-01T02:19:58;8.30;99.90
17154;DHT22;8692;52.164;7.558;2023-05-01T02:22:27;8.30;99.90
17154;DHT22;8692;52.164;7.558;2023-05-01T02:24:59;8.30;99.90
17154;DHT22;8692;52.164;7.558;2023-05-01T02:27:30;8.30;99.90
17154;DHT22;8692;52.164;7.558;2023-05-01T02:29:59;8.30;99.90
17154;DHT22;8692;52.164;7.558;2023-05-01T02:32:27;8.30;99.90
17154;DHT22;8692;52.164;7.558;2023-05-01T02:34:57;8.20;99.90
17154;DHT22;8692;52.164;7.558;2023-05-01T02:37:26;8.20;99.90
17154;DHT22;8692;52.164;7.558;2023-05-01T02:39:56;8.20;99.90
17154;DHT22;8692;52.164;7.558;2023-05-01T02:42:28;8.10;99.90
17154;DHT22;8692;52.164;7.558;2023-05-01T02:45:01;8.20;99.90
17154;DHT22;8692;52.164;7.558;2023-05-01T02:47:34;8.10;99.90
17154;DHT22;8692;52.164;7.558;2023-05-01T02:50:06;8.10;99.90
17154;DHT22;8692;52.164;7.558;2023-05-01T02:52:37;8.10;99.90
17154;DHT22;8692;52.164;7.558;2023-05-01T02:55:24;8.00;99.90
17154;DHT22;8692;52.164;7.558;2023-05-01T02:57:57;8.00;99.90
17154;DHT22;8692;52.164;7.558;2023-05-01T03:00:25;8.00;99.90
17154;DHT22;8692;52.164;7.558;2023-05-01T03:02:53;7.90;99.90
17154;DHT22;8692;52.164;7.558;2023-05-01T03:05:23;7.90;99.90
17154;DHT22;8692;52.164;7.558;2023-05-01T03:08:01;7.90;99.90
17154;DHT22;8692;52.164;7.558;2023-05-01T03:10:30;7.90;99.90
17154;DHT22;8692;52.164;7.558;2023-05-01T03:13:00;7.90;99.90
17154;DHT22;8692;52.164;7.558;2023-05-01T03:15:31;7.90;99.90
17154;DHT22;8692;52.164;7.558;2023-05-01T03:18:02;7.80;99.90
17154;DHT22;8692;52.164;7.558;2023-05-01T03:20:31;7.80;99.90
17154;DHT22;8692;52.164;7.558;2023-05-01T03:23:01;7.80;99.90
17154;DHT22;8692;52.164;7.558;2023-05-01T03:25:32;7.80;99.90
17154;DHT22;8692;52.164;7.558;2023-05-01T03:28:02;7.80;99.90
17154;DHT22;8692;52.164;7.558;2023-05-01T03:30:32;7.80;99.90
17154;DHT22;8692;52.164;7.558;2023-05-01T03:33:01;7.80;99.90
17154;DHT22;8692;52.164;7.558;2023-05-01T03:35:33;7.90;99.90
17154;DHT22;8692;52.164;7.558;2023-05-01T03:38:03;7.90;99.90
17154;DHT22;8692;52.164;7.558;2023-05-01T03:40:50;7.90;99.90
17154;DHT22;8692;52.164;7.558;2023-05-01T03:43:39;7.90;99.90
17154;DHT22;8692;52.164;7.558;2023-05-01T03:46:15;7.90;99.90
17154;DHT22;8692;52.164;7.558;2023-05-01T03:48:46;7.90;99.90
17154;DHT22;8692;52.164;7.558;2023-05-01T03:51:16;7.90;99.90
17154;DHT22;8692;52.164;7.558;2023-05-01T03:53:45;7.90;99.90
17154;DHT22;8692;52.164;7.558;2023-05-01T03:56:13;7.90;99.90
17154;DHT22;8692;52.164;7.558;2023-05-01T03:58:41;7.90;99.90
17154;DHT22;8692;52.164;7.558;2023-05-01T04:01:12;7.90;99.90
17154;DHT22;8692;52.164;7.558;2023-05-01T04:03:44;7.90;99.90
17154;DHT22;8692;52.164;7.558;2023-05-01T04:06:12;7.90;99.90
17154;DHT22;8692;52.164;7.558;2023-05-01T04:08:43;7.90;99.90
17154;DHT22;8692;52.164;7.558;2023-05-01T04:11:14;7.90;99.90
17154;DHT22;8692;52.164;7.558;2023-05-01T04:13:43;7.90;99.90
17154;DHT22;8692;52.164;7.558;2023-05-01T04:16:14;7.90;99.90
17154;DHT22;8692;52.164;7.558;2023-05-01T04:18:46;7.90;99.90
17154;DHT22;8692;52.164;7.558;2023-05-01T04:21:14;7.90;99.90
17154;DHT22;8692;52.164;7.558;2023-05-01T04:23:49;7.90;99.90
17154;DHT22;8692;52.164;7.558;2023-05-01T04:26:18;7.90;99.90
17154;DHT22;8692;52.164;7.558;2023-05-01T04:28:46;7.90;99.90
17154;DHT22;8692;52.164;7.558;2023-05-01T04:31:18;7.90;99.90
17154;DHT22;8692;52.164;7.558;2023-05-01T04:33:46;7.90;99.90
17154;DHT22;8692;52.164;7.558;2023-05-01T04:36:18;7.90;99.90
17154;DHT22;8692;52.164;7.558;2023-05-01T04:38:48;7.90;99.90
17154;DHT22;8692;52.164;7.558;2023-05-01T04:41:17;7.90;99.90
17154;DHT22;8692;52.164;7.558;2023-05-01T04:43:46;7.90;99.90
17154;DHT22;8692;52.164;7.558;2023-05-01T04:46:17;8.00;99.90
17154;DHT22;8692;52.164;7.558;2023-05-01T04:48:45;8.00;99.90
17154;DHT22;8692;52.164;7.558;2023-05-01T04:51:13;8.00;99.90
17154;DHT22;8692;52.164;7.558;2023-05-01T04:53:41;8.00;99.90
17154;DHT22;8692;52.164;7.558;2023-05-01T04:56:23;8.00;99.90
17154;DHT22;8692;52.164;7.558;2023-05-01T04:58:59;8.00;99.90
17154;DHT22;8692;52.164;7.558;2023-05-01T05:01:29;8.10;99.90
17154;DHT22;8692;52.164;7.558;2023-05-01T05:03:57;8.10;99.90
17154;DHT22;8692;52.164;7.558;2023-05-01T05:06:29;8.10;99.90
17154;DHT22;8692;52.164;7.558;2023-05-01T05:08:57;8.10;99.90
17154;DHT22;8692;52.164;7.558;2023-05-01T05:11:30;8.20;99.90
17154;DHT22;8692;52.164;7.558;2023-05-01T05:14:09;8.20;99.90
17154;DHT22;8692;52.164;7.558;2023-05-01T05:16:40;8.20;99.90
17154;DHT22;8692;52.164;7.558;2023-05-01T05:19:08;8.30;99.90
17154;DHT22;8692;52.164;7.558;2023-05-01T05:21:40;8.30;99.90
17154;DHT22;8692;52.164;7.558;2023-05-01T05:24:08;8.40;99.90
17154;DHT22;8692;52.164;7.558;2023-05-01T05:26:40;8.40;99.90
17154;DHT22;8692;52.164;7.558;2023-05-01T05:29:11;8.40;99.90
17154;DHT22;8692;52.164;7.558;2023-05-01T05:31:42;8.50;99.90
17154;DHT22;8692;52.164;7.558;2023-05-01T05:34:10;8.60;99.90
17154;DHT22;8692;52.164;7.558;2023-05-01T05:36:38;8.60;99.90
17154;DHT22;8692;52.164;7.558;2023-05-01T05:39:07;8.60;99.90
17154;DHT22;8692;52.164;7.558;2023-05-01T05:41:37;8.70;99.90
17154;DHT22;8692;52.164;7.558;2023-05-01T05:44:09;8.70;99.90
17154;DHT22;8692;52.164;7.558;2023-05-01T05:46:38;8.80;99.90
17154;DHT22;8692;52.164;7.558;2023-05-01T05:49:06;8.90;99.90
17154;DHT22;8692;52.164;7.558;2023-05-01T05:51:35;8.90;99.90
17154;DHT22;8692;52.164;7.558;2023-05-01T05:54:06;9.00;99.90
17154;DHT22;8692;52.164;7.558;2023-05-01T05:56:37;9.10;99.90
17154;DHT22;8692;52.164;7.558;2023-05-01T05:59:13;9.20;99.90
17154;DHT22;8692;52.164;7.558;2023-05-01T06:01:45;9.30;99.90
17154;DHT22;8692;52.164;7.558;2023-05-01T06:04:14;9.40;99.90
17154;DHT22;8692;52.164;7.558;2023-05-01T06:06:44;9.50;99.90
17154;DHT22;8692;52.164;7.558;2023-05-01T06:09:13;9.60;99.90
17154;DHT22;8692;52.164;7.558;2023-05-01T06:11:46;9.70;99.90
17154;DHT22;8692;52.164;7.558;2023-05-01T06:14:15;9.70;99.90
17154;DHT22;8692;52.164;7.558;2023-05-01T06:16:44;9.80;99.90
17154;DHT22;8692;52.164;7.558;2023-05-01T06:19:13;9.80;99.90
17154;DHT22;8692;52.164;7.558;2023-05-01T06:21:42;9.80;99.90
17154;DHT22;8692;52.164;7.558;2023-05-01T06:24:10;9.80;99.90
17154;DHT22;8692;52.164;7.558;2023-05-01T06:26:46;9.90;99.90
17154;DHT22;8692;52.164;7.558;2023-05-01T06:29:15;9.90;99.90
17154;DHT22;8692;52.164;7.558;2023-05-01T06:31:46;10.00;99.90
17154;DHT22;8692;52.164;7.558;2023-05-01T06:34:15;10.00;99.90
17154;DHT22;8692;52.164;7.558;2023-05-01T06:36:48;10.00;99.90
17154;DHT22;8692;52.164;7.558;2023-05-01T06:39:16;10.10;99.90
17154;DHT22;8692;52.164;7.558;2023-05-01T06:41:45;10.20;99.90
17154;DHT22;8692;52.164;7.558;2023-05-01T06:44:15;10.20;99.90
17154;DHT22;8692;52.164;7.558;2023-05-01T06:46:46;10.30;99.90
17154;DHT22;8692;52.164;7.558;2023-05-01T06:49:14;10.40;99.90
17154;DHT22;8692;52.164;7.558;2023-05-01T06:51:44;10.40;99.90
17154;DHT22;8692;52.164;7.558;2023-05-01T06:54:13;10.50;99.90
17154;DHT22;8692;52.164;7.558;2023-05-01T06:56:43;10.60;99.90
17154;DHT22;8692;52.164;7.558;2023-05-01T06:59:12;10.70;99.90
17154;DHT22;8692;52.164;7.558;2023-05-01T07:01:41;10.70;99.90
17154;DHT22;8692;52.164;7.558;2023-05-01T07:04:09;10.70;99.90
17154;DHT22;8692;52.164;7.558;2023-05-01T07:06:40;10.80;99.90
17154;DHT22;8692;52.164;7.558;2023-05-01T07:09:08;10.80;99.90
17154;DHT22;8692;52.164;7.558;2023-05-01T07:11:37;10.90;99.90
17154;DHT22;8692;52.164;7.558;2023-05-01T07:14:05;10.90;99.90
17154;DHT22;8692;52.164;7.558;2023-05-01T07:16:35;11.00;99.90
17154;DHT22;8692;52.164;7.558;2023-05-01T07:19:05;11.10;99.90
17154;DHT22;8692;52.164;7.558;2023-05-01T07:21:33;11.10;99.90
17154;DHT22;8692;52.164;7.558;2023-05-01T07:24:01;11.20;99.90
17154;DHT22;8692;52.164;7.558;2023-05-01T07:26:30;11.20;99.90
17154;DHT22;8692;52.164;7.558;2023-05-01T07:29:00;11.30;99.90
17154;DHT22;8692;52.164;7.558;2023-05-01T07:31:28;11.40;99.90
17154;DHT22;8692;52.164;7.558;2023-05-01T07:33:57;11.50;99.90
17154;DHT22;8692;52.164;7.558;2023-05-01T07:36:28;11.60;99.90
17154;DHT22;8692;52.164;7.558;2023-05-01T07:38:58;11.70;99.90
17154;DHT22;8692;52.164;7.558;2023-05-01T07:41:26;11.80;99.90
17154;DHT22;8692;52.164;7.558;2023-05-01T07:43:57;11.90;99.90
17154;DHT22;8692;52.164;7.558;2023-05-01T07:46:25;12.00;99.90
17154;DHT22;8692;52.164;7.558;2023-05-01T07:48:56;12.10;99.90
17154;DHT22;8692;52.164;7.558;2023-05-01T07:51:24;12.20;99.90
17154;DHT22;8692;52.164;7.558;2023-05-01T07:53:54;12.20;99.90
17154;DHT22;8692;52.164;7.558;2023-05-01T07:56:24;12.30;99.90
17154;DHT22;8692;52.164;7.558;2023-05-01T07:58:55;12.40;99.90
17154;DHT22;8692;52.164;7.558;2023-05-01T08:01:23;12.40;99.90
17154;DHT22;8692;52.164;7.558;2023-05-01T08:03:54;12.50;99.90
17154;DHT22;8692;52.164;7.558;2023-05-01T08:06:22;12.50;99.90
17154;DHT22;8692;52.164;7.558;2023-05-01T08:08:51;12.50;99.90
17154;DHT22;8692;52.164;7.558;2023-05-01T08:11:20;12.60;99.90
17154;DHT22;8692;52.164;7.558;2023-05-01T08:13:50;12.60;99.90
17154;DHT22;8692;52.164;7.558;2023-05-01T08:16:18;12.70;99.90
17154;DHT22;8692;52.164;7.558;2023-05-01T08:18:48;12.80;99.90
17154;DHT22;8692;52.164;7.558;2023-05-01T08:21:16;12.90;99.90
17154;DHT22;8692;52.164;7.558;2023-05-01T08:23:44;13.00;99.90
17154;DHT22;8692;52.164;7.558;2023-05-01T08:26:12;13.10;99.90
17154;DHT22;8692;52.164;7.558;2023-05-01T08:28:42;13.20;99.90
17154;DHT22;8692;52.164;7.558;2023-05-01T08:31:10;13.30;99.90
17154;DHT22;8692;52.164;7.558;2023-05-01T08:33:38;13.40;99.90
17154;DHT22;8692;52.164;7.558;2023-05-01T08:36:08;13.50;99.90
17154;DHT22;8692;52.164;7.558;2023-05-01T08:38:39;13.70;99.90
17154;DHT22;8692;52.164;7.558;2023-05-01T08:41:15;13.80;99.90
17154;DHT22;8692;52.164;7.558;2023-05-01T08:43:45;13.90;99.90
17154;DHT22;8692;52.164;7.558;2023-05-01T08:46:17;14.00;99.90
17154;DHT22;8692;52.164;7.558;2023-05-01T08:48:47;14.10;99.90
17154;DHT22;8692;52.164;7.558;2023-05-01T08:51:17;14.20;99.90
17154;DHT22;8692;52.164;7.558;2023-05-01T08:53:51;14.30;99.90
17154;DHT22;8692;52.164;7.558;2023-05-01T08:56:24;14.50;99.90
17154;DHT22;8692;52.164;7.558;2023-05-01T08:58:54;14.70;99.90
17154;DHT22;8692;52.164;7.558;2023-05-01T09:01:23;14.80;98.30
17154;DHT22;8692;52.164;7.558;2023-05-01T09:03:54;15.00;99.90
17154;DHT22;8692;52.164;7.558;2023-05-01T09:06:24;15.20;99.90
17154;DHT22;8692;52.164;7.558;2023-05-01T09:09:03;15.40;98.80
17154;DHT22;8692;52.164;7.558;2023-05-01T09:11:31;15.50;96.60
17154;DHT22;8692;52.164;7.558;2023-05-01T09:14:02;15.50;95.90
17154;DHT22;8692;52.164;7.558;2023-05-01T09:16:34;15.60;97.50
17154;DHT22;8692;52.164;7.558;2023-05-01T09:19:02;15.80;95.30
17154;DHT22;8692;52.164;7.558;2023-05-01T09:21:30;15.90;94.50
17154;DHT22;8692;52.164;7.558;2023-05-01T09:23:58;16.00;95.00
17154;DHT22;8692;52.164;7.558;2023-05-01T09:26:27;16.20;94.60
17154;DHT22;8692;52.164;7.558;2023-05-01T09:28:55;16.30;92.80
17154;DHT22;8692;52.164;7.558;2023-05-01T09:31:28;16.40;92.40
17154;DHT22;8692;52.164;7.558;2023-05-01T09:34:02;16.40;92.30
17154;DHT22;8692;52.164;7.558;2023-05-01T09:36:32;16.50;92.40
17154;DHT22;8692;52.164;7.558;2023-05-01T09:39:00;16.70;91.40
17154;DHT22;8692;52.164;7.558;2023-05-01T09:41:29;16.80;87.90
17154;DHT22;8692;52.164;7.558;2023-05-01T09:43:59;16.90;88.20
17154;DHT22;8692;52.164;7.558;2023-05-01T09:46:40;17.00;91.00
17154;DHT22;8692;52.164;7.558;2023-05-01T09:49:11;17.10;89.10
17154;DHT22;8692;52.164;7.558;2023-05-01T09:51:39;17.20;88.90
17154;DHT22;8692;52.164;7.558;2023-05-01T09:54:17;17.30;90.20
17154;DHT22;8692;52.164;7.558;2023-05-01T09:56:48;17.50;85.70
17154;DHT22;8692;52.164;7.558;2023-05-01T09:59:20;17.70;82.90
17154;DHT22;8692;52.164;7.558;2023-05-01T10:01:49;17.80;84.00
17154;DHT22;8692;52.164;7.558;2023-05-01T10:04:29;17.90;82.90
17154;DHT22;8692;52.164;7.558;2023-05-01T10:06:58;18.00;81.90
17154;DHT22;8692;52.164;7.558;2023-05-01T10:09:27;18.20;84.20
17154;DHT22;8692;52.164;7.558;2023-05-01T10:11:56;18.30;83.70
17154;DHT22;8692;52.164;7.558;2023-05-01T10:14:25;18.50;81.90
17154;DHT22;8692;52.164;7.558;2023-05-01T10:16:56;18.60;80.70
17154;DHT22;8692;52.164;7.558;2023-05-01T10:19:25;18.70;78.40
17154;DHT22;8692;52.164;7.558;2023-05-01T10:21:53;18.70;77.60
17154;DHT22;8692;52.164;7.558;2023-05-01T10:24:21;18.80;75.40
17154;DHT22;8692;52.164;7.558;2023-05-01T10:26:51;18.80;74.30
17154;DHT22;8692;52.164;7.558;2023-05-01T10:29:23;18.90;76.70
17154;DHT22;8692;52.164;7.558;2023-05-01T10:31:51;19.00;75.30
17154;DHT22;8692;52.164;7.558;2023-05-01T10:34:24;19.10;76.80
17154;DHT22;8692;52.164;7.558;2023-05-01T10:37:01;19.30;77.10
17154;DHT22;8692;52.164;7.558;2023-05-01T10:39:31;19.40;75.70
17154;DHT22;8692;52.164;7.558;2023-05-01T10:42:03;19.60;75.20
17154;DHT22;8692;52.164;7.558;2023-05-01T10:44:33;19.70;73.60
17154;DHT22;8692;52.164;7.558;2023-05-01T10:50:11;19.90;73.00
17154;DHT22;8692;52.164;7.558;2023-05-01T10:53:15;20.00;70.20
17154;DHT22;8692;52.164;7.558;2023-05-01T10:55:44;20.10;70.50
17154;DHT22;8692;52.164;7.558;2023-05-01T11:01:27;20.30;67.60
17154;DHT22;8692;52.164;7.558;2023-05-01T11:03:57;20.20;67.90
17154;DHT22;8692;52.164;7.558;2023-05-01T11:06:30;20.20;67.90
17154;DHT22;8692;52.164;7.558;2023-05-01T11:09:02;20.20;70.40
17154;DHT22;8692;52.164;7.558;2023-05-01T11:11:51;20.40;71.40
17154;DHT22;8692;52.164;7.558;2023-05-01T11:14:21;20.50;70.00
17154;DHT22;8692;52.164;7.558;2023-05-01T11:16:50;20.50;69.90
17154;DHT22;8692;52.164;7.558;2023-05-01T11:19:44;20.60;69.60
17154;DHT22;8692;52.164;7.558;2023-05-01T11:22:14;20.70;69.40
17154;DHT22;8692;52.164;7.558;2023-05-01T11:24:42;20.80;69.60
17154;DHT22;8692;52.164;7.558;2023-05-01T11:27:15;20.90;68.10
17154;DHT22;8692;52.164;7.558;2023-05-01T11:29:49;20.90;68.10
17154;DHT22;8692;52.164;7.558;2023-05-01T11:32:19;21.00;67.40
17154;DHT22;8692;52.164;7.558;2023-05-01T11:34:53;21.00;65.60
17154;DHT22;8692;52.164;7.558;2023-05-01T11:37:40;21.00;68.40
17154;DHT22;8692;52.164;7.558;2023-05-01T11:40:18;21.10;64.90
17154;DHT22;8692;52.164;7.558;2023-05-01T11:42:50;21.00;66.40
17154;DHT22;8692;52.164;7.558;2023-05-01T11:45:20;21.00;68.90
17154;DHT22;8692;52.164;7.558;2023-05-01T11:47:49;21.10;68.70
17154;DHT22;8692;52.164;7.558;2023-05-01T11:50:17;21.10;68.20
17154;DHT22;8692;52.164;7.558;2023-05-01T11:52:48;21.20;67.50
17154;DHT22;8692;52.164;7.558;2023-05-01T11:55:29;21.30;68.10
17154;DHT22;8692;52.164;7.558;2023-05-01T11:58:00;21.40;64.60
17154;DHT22;8692;52.164;7.558;2023-05-01T12:00:29;21.40;64.90
17154;DHT22;8692;52.164;7.558;2023-05-01T12:03:01;21.40;63.60
17154;DHT22;8692;52.164;7.558;2023-05-01T12:05:34;21.40;64.00
17154;DHT22;8692;52.164;7.558;2023-05-01T12:08:11;21.30;65.10
17154;DHT22;8692;52.164;7.558;2023-05-01T12:10:40;21.40;64.70
17154;DHT22;8692;52.164;7.558;2023-05-01T12:13:12;21.40;65.60
17154;DHT22;8692;52.164;7.558;2023-05-01T12:15:45;21.40;63.90
17154;DHT22;8692;52.164;7.558;2023-05-01T12:18:14;21.50;63.10
17154;DHT22;8692;52.164;7.558;2023-05-01T12:20:45;21.60;63.50
17154;DHT22;8692;52.164;7.558;2023-05-01T12:23:14;21.70;61.60
17154;DHT22;8692;52.164;7.558;2023-05-01T12:25:45;21.70;62.00
17154;DHT22;8692;52.164;7.558;2023-05-01T12:28:16;21.80;61.50
17154;DHT22;8692;52.164;7.558;2023-05-01T12:30:48;21.80;60.00
17154;DHT22;8692;52.164;7.558;2023-05-01T12:33:19;21.70;60.50
17154;DHT22;8692;52.164;7.558;2023-05-01T12:35:48;21.70;61.40
17154;DHT22;8692;52.164;7.558;2023-05-01T12:38:20;21.70;62.40
17154;DHT22;8692;52.164;7.558;2023-05-01T12:40:53;21.70;61.40
17154;DHT22;8692;52.164;7.558;2023-05-01T12:43:31;21.70;61.40
17154;DHT22;8692;52.164;7.558;2023-05-01T12:46:03;21.70;61.40
17154;DHT22;8692;52.164;7.558;2023-05-01T12:48:32;21.60;61.50
17154;DHT22;8692;52.164;7.558;2023-05-01T12:51:05;21.50;61.20
17154;DHT22;8692;52.164;7.558;2023-05-01T12:53:43;21.50;61.50
17154;DHT22;8692;52.164;7.558;2023-05-01T12:56:22;21.50;61.40
17154;DHT22;8692;52.164;7.558;2023-05-01T12:58:52;21.50;61.50
17154;DHT22;8692;52.164;7.558;2023-05-01T13:01:24;21.50;62.80
17154;DHT22;8692;52.164;7.558;2023-05-01T13:03:56;21.60;62.20
17154;DHT22;8692;52.164;7.558;2023-05-01T13:06:32;21.70;59.70
17154;DHT22;8692;52.164;7.558;2023-05-01T13:09:09;21.60;62.60
17154;DHT22;8692;52.164;7.558;2023-05-01T13:11:37;21.50;62.40
17154;DHT22;8692;52.164;7.558;2023-05-01T13:14:09;21.50;62.70
17154;DHT22;8692;52.164;7.558;2023-05-01T13:16:44;21.60;62.40
17154;DHT22;8692;52.164;7.558;2023-05-01T13:19:13;21.60;62.90
17154;DHT22;8692;52.164;7.558;2023-05-01T13:21:55;21.70;62.70
17154;DHT22;8692;52.164;7.558;2023-05-01T13:24:35;21.80;62.70
17154;DHT22;8692;52.164;7.558;2023-05-01T13:27:03;21.90;63.40
17154;DHT22;8692;52.164;7.558;2023-05-01T13:29:33;22.00;61.20
17154;DHT22;8692;52.164;7.558;2023-05-01T13:32:05;21.90;62.80
17154;DHT22;8692;52.164;7.558;2023-05-01T13:34:41;22.00;63.30
17154;DHT22;8692;52.164;7.558;2023-05-01T13:37:16;22.00;62.00
17154;DHT22;8692;52.164;7.558;2023-05-01T13:39:45;22.10;61.70
17154;DHT22;8692;52.164;7.558;2023-05-01T13:42:21;22.20;58.30
17154;DHT22;8692;52.164;7.558;2023-05-01T13:44:54;22.20;58.50
17154;DHT22;8692;52.164;7.558;2023-05-01T13:47:23;22.30;57.10
17154;DHT22;8692;52.164;7.558;2023-05-01T13:49:55;22.30;59.50
17154;DHT22;8692;52.164;7.558;2023-05-01T13:52:24;22.50;59.00
17154;DHT22;8692;52.164;7.558;2023-05-01T13:54:55;22.50;59.90
17154;DHT22;8692;52.164;7.558;2023-05-01T13:57:24;22.50;59.40
17154;DHT22;8692;52.164;7.558;2023-05-01T13:59:54;22.60;59.40
17154;DHT22;8692;52.164;7.558;2023-05-01T14:02:26;22.50;59.10
17154;DHT22;8692;52.164;7.558;2023-05-01T14:04:55;22.50;58.70
17154;DHT22;8692;52.164;7.558;2023-05-01T14:07:26;22.60;59.00
17154;DHT22;8692;52.164;7.558;2023-05-01T14:09:58;22.70;58.60
17154;DHT22;8692;52.164;7.558;2023-05-01T14:12:28;22.80;56.80
17154;DHT22;8692;52.164;7.558;2023-05-01T14:14:58;22.80;56.40
17154;DHT22;8692;52.164;7.558;2023-05-01T14:17:30;22.80;58.40
17154;DHT22;8692;52.164;7.558;2023-05-01T14:19:58;22.80;57.90
17154;DHT22;8692;52.164;7.558;2023-05-01T14:22:29;22.70;58.90
17154;DHT22;8692;52.164;7.558;2023-05-01T14:25:05;22.60;58.50
17154;DHT22;8692;52.164;7.558;2023-05-01T14:27:33;22.50;57.90
17154;DHT22;8692;52.164;7.558;2023-05-01T14:30:05;22.50;56.90
17154;DHT22;8692;52.164;7.558;2023-05-01T14:32:39;22.40;56.30
17154;DHT22;8692;52.164;7.558;2023-05-01T14:35:09;22.30;57.00
17154;DHT22;8692;52.164;7.558;2023-05-01T14:37:39;22.10;58.20
17154;DHT22;8692;52.164;7.558;2023-05-01T14:40:11;22.00;58.10
17154;DHT22;8692;52.164;7.558;2023-05-01T14:42:41;22.00;58.60
17154;DHT22;8692;52.164;7.558;2023-05-01T14:45:14;21.90;59.70
17154;DHT22;8692;52.164;7.558;2023-05-01T14:47:44;21.80;58.70
17154;DHT22;8692;52.164;7.558;2023-05-01T14:50:18;21.70;58.60
17154;DHT22;8692;52.164;7.558;2023-05-01T14:52:51;21.70;59.50
17154;DHT22;8692;52.164;7.558;2023-05-01T14:55:24;21.60;60.90
17154;DHT22;8692;52.164;7.558;2023-05-01T14:57:56;21.40;61.50
17154;DHT22;8692;52.164;7.558;2023-05-01T15:00:26;21.30;61.90
17154;DHT22;8692;52.164;7.558;2023-05-01T15:02:54;21.30;61.50
17154;DHT22;8692;52.164;7.558;2023-05-01T15:05:23;21.30;61.90
17154;DHT22;8692;52.164;7.558;2023-05-01T15:07:53;21.20;61.90
17154;DHT22;8692;52.164;7.558;2023-05-01T15:10:22;21.20;62.10
17154;DHT22;8692;52.164;7.558;2023-05-01T15:12:52;21.20;62.00
17154;DHT22;8692;52.164;7.558;2023-05-01T15:15:26;21.10;61.60
17154;DHT22;8692;52.164;7.558;2023-05-01T15:17:55;21.00;62.10
17154;DHT22;8692;52.164;7.558;2023-05-01T15:20:26;21.00;62.80
17154;DHT22;8692;52.164;7.558;2023-05-01T15:22:56;20.80;63.30
17154;DHT22;8692;52.164;7.558;2023-05-01T15:25:24;20.80;63.80
17154;DHT22;8692;52.164;7.558;2023-05-01T15:27:52;20.70;62.90
17154;DHT22;8692;52.164;7.558;2023-05-01T15:30:20;20.70;63.20
17154;DHT22;8692;52.164;7.558;2023-05-01T15:32:50;20.60;63.60
17154;DHT22;8692;52.164;7.558;2023-05-01T15:35:21;20.60;63.30
17154;DHT22;8692;52.164;7.558;2023-05-01T15:37:50;20.60;63.00
17154;DHT22;8692;52.164;7.558;2023-05-01T15:40:21;20.60;62.40
17154;DHT22;8692;52.164;7.558;2023-05-01T15:42:49;20.40;62.80
17154;DHT22;8692;52.164;7.558;2023-05-01T15:45:17;20.40;63.00
17154;DHT22;8692;52.164;7.558;2023-05-01T15:47:46;20.40;62.90
17154;DHT22;8692;52.164;7.558;2023-05-01T15:50:18;20.30;64.30
17154;DHT22;8692;52.164;7.558;2023-05-01T15:52:50;20.40;62.60
17154;DHT22;8692;52.164;7.558;2023-05-01T15:55:18;20.60;63.70
17154;DHT22;8692;52.164;7.558;2023-05-01T15:57:49;20.80;63.30
17154;DHT22;8692;52.164;7.558;2023-05-01T16:00:20;20.90;62.70
17154;DHT22;8692;52.164;7.558;2023-05-01T16:02:48;20.90;62.40
17154;DHT22;8692;52.164;7.558;2023-05-01T16:05:20;21.00;63.30
17154;DHT22;8692;52.164;7.558;2023-05-01T16:07:53;21.10;62.80
17154;DHT22;8692;52.164;7.558;2023-05-01T16:10:22;21.20;62.40
17154;DHT22;8692;52.164;7.558;2023-05-01T16:12:51;21.20;62.30
17154;DHT22;8692;52.164;7.558;2023-05-01T16:15:20;21.20;61.60
17154;DHT22;8692;52.164;7.558;2023-05-01T16:17:49;21.00;62.20
17154;DHT22;8692;52.164;7.558;2023-05-01T16:20:22;20.90;62.30
17154;DHT22;8692;52.164;7.558;2023-05-01T16:22:53;20.80;62.10
17154;DHT22;8692;52.164;7.558;2023-05-01T16:25:21;20.60;62.90